KCLK/CLK METAR and TAF weather

Enter ICAO airport designator
Station Type Date Time Source
KCLK METAR 2020/06/02 18:55 UTC NOAA

KCLK 021855Z AUTO 22010G21KT 10SM SCT049 31/16 A3003 RMK AO2


Station Type Date Time Source
KCLK Decoded METAR 2020/06/02 18:55 UTC NOAA

Clinton, Clinton Regional Airport, OK, United States (KCLK) 35-32-17N 098-55-17W
Jun 02, 2020 - 02:55 PM EDT / 2020.06.02 1855 UTC
Wind: from the SW (220 degrees) at 12 MPH (10 KT) gusting to 24 MPH (21 KT):0
Visibility: 10 mile(s):0
Sky conditions: partly cloudy
Temperature: 87 F (31 C)
Dew Point: 60 F (16 C)
Relative Humidity: 40%
Pressure (altimeter): 30.03 in. Hg (1016 hPa)
ob: KCLK 021855Z AUTO 22010G21KT 10SM SCT049 31/16 A3003 RMK AO2
cycle: 19

Station Type Date Time Source
KCLK TAF UTC NOAA

Error!

Example: see airport list